• Join FlightAware (Why Join?)
  • Login
  • US Flag 
04:24PM EDT


 

Airport Tracker/Info


-or-


 

Live Flight TrackerFlight Track Log ✈ DAL6241 ✈ 11-Oct-2013 ✈ KDTW - KSAV

Flight Track Log - Related Links

Times and Time Zones

All times are in EDT time to prevent confusion due to time zone crossing. See the DAL6241 flight status page for this flight to view local times or setup timezone preferences in your user account.

Time Position Orientation Groundspeed Altitude Reporting Facility
EDT Latitude Longitude Course Direction KTS MPH feet Rate Location/Type
02:17PM 42.1994 -83.3717 212° Southwest 161 185 1,500  Level Cleveland Center
02:18PM 42.1456 -83.4178 212° Southwest 211 243 3,800 1,800 Climbing Cleveland Center
02:19PM 42.1003 -83.4528 210° Southwest 211 243 5,300 2,040 Climbing Cleveland Center
02:19PM 42.0853 -83.4656 212° Southwest 268 308 5,900 2,640 Climbing Cleveland Center
02:20PM 42.0333 -83.4931 201° Southwest 254 292 8,100 2,460 Climbing Cleveland Center
02:20PM 42.0081 -83.4881 172° South 282 325 8,700 2,220 Climbing Cleveland Center
02:21PM 41.9569 -83.4622 159° South 280 322 10,400 1,800 Climbing Cleveland Center
02:22PM 41.8700 -83.4269 163° South 311 358 12,000 1,740 Climbing Cleveland Center
02:23PM 41.7789 -83.3875 162° South 340 391 14,000 1,800 Climbing Cleveland Center
02:24PM 41.6800 -83.3647 170° South 363 418 15,800 1,740 Climbing Cleveland Center
02:25PM 41.5797 -83.3983 194° South 371 427 17,600 1,800 Climbing Cleveland Center
02:26PM 41.4553 -83.4400 194° South 385 443 19,600 1,620 Climbing Cleveland Center
02:27PM 41.3486 -83.4728 193° South 393 452 21,000 1,200 Climbing Cleveland Center
02:28PM 41.2383 -83.5089 194° South 404 465 22,200 1,140 Climbing Cleveland Center
02:29PM 41.1250 -83.5464 194° South 416 479 23,400 1,140 Climbing Cleveland Center
02:30PM 40.9978 -83.5872 194° South 427 491 24,600 1,020 Climbing Cleveland Center
02:31PM 40.8775 -83.6247 193° South 441 507 25,600 960 Climbing Cleveland Center
02:32PM 40.8028 -83.6500 194° South 449 517 26,200 960 Climbing Indianapolis Center
02:33PM 40.6794 -83.6886 193° South 456 525 27,200 960 Climbing Indianapolis Center
02:34PM 40.5558 -83.7275 193° South 458 527 28,200 960 Climbing Indianapolis Center
02:35PM 40.4056 -83.7742 193° South 462 532 29,300 900 Climbing Indianapolis Center
02:36PM 40.2797 -83.8150 194° South 468 539 30,100 720 Climbing Indianapolis Center
02:37PM 40.1511 -83.8544 193° South 475 547 30,900 720 Climbing Indianapolis Center
02:38PM 40.0214 -83.8944 193° South 482 555 31,700 720 Climbing Indianapolis Center
02:39PM 39.8922 -83.9344 193° South 484 557 32,400 720 Climbing Indianapolis Center
02:40PM 39.7356 -83.9822 193° South 486 559 33,300 720 Climbing Indianapolis Center
02:41PM 39.6047 -84.0111 190° South 484 557 34,000 660 Climbing Indianapolis Center
02:42PM 39.4697 -84.0236 184° South 489 563 34,700 660 Climbing Indianapolis Center
02:43PM 39.3372 -84.0139 177° South 482 555 35,400 720 Climbing Indianapolis Center
02:44PM 39.1786 -83.9775 170° South 486 559 36,300 720 Climbing Indianapolis Center
02:45PM 39.0478 -83.9450 169° South 483 556 37,000 660 Climbing Indianapolis Center
02:46PM 38.9203 -83.9114 168° South 474 545 37,700 480 Climbing Indianapolis Center
02:47PM 38.7922 -83.8794 169° South 472 543 38,000 120 Climbing Indianapolis Center
02:48PM 38.6639 -83.8458 168° South 472 543 38,000  Level Indianapolis Center
02:49PM 38.5133 -83.8081 169° South 470 541 38,000  Level Indianapolis Center
02:50PM 38.3828 -83.7753 169° South 473 544 38,000  Level Indianapolis Center
02:51PM 38.2519 -83.7444 170° South 475 547 38,000  Level Indianapolis Center
02:52PM 38.1228 -83.7131 169° South 473 544 38,000  Level Indianapolis Center
02:53PM 37.9933 -83.6725 166° South 476 548 38,000  Level Indianapolis Center
02:54PM 37.8458 -83.6164 163° South 473 544 38,000  Level Indianapolis Center
02:56PM 37.7183 -83.5692 164° South 475 547 38,000  Level Indianapolis Center
02:57PM 37.5903 -83.5231 164° South 477 549 38,000  Level Indianapolis Center
02:58PM 37.4631 -83.4769 164° South 477 549 38,000  Level Indianapolis Center
02:59PM 37.3364 -83.4303 164° South 475 547 38,000  Level Indianapolis Center
03:00PM 37.1883 -83.3753 164° South 477 549 38,000  Level Indianapolis Center
03:01PM 37.0628 -83.3303 164° South 474 545 38,000  Level Indianapolis Center
03:02PM 36.9378 -83.2858 164° South 470 541 38,000  Level Indianapolis Center
03:03PM 36.8122 -83.2403 164° South 473 544 38,000  Level Indianapolis Center
03:04PM 36.6664 -83.1869 164° South 473 544 38,000  Level Indianapolis Center
03:05PM 36.5419 -83.1408 163° South 470 541 38,000  Level Indianapolis Center
03:06PM 36.4175 -83.0978 164° South 467 537 38,000  Level Indianapolis Center
03:07PM 36.2947 -83.0531 164° South 461 531 38,000  Level Indianapolis Center
03:08PM 36.1703 -83.0092 164° South 464 534 38,000  Level Indianapolis Center
03:09PM 36.0181 -82.9553 164° South 468 539 38,000  Level Atlanta Center
03:10PM 35.8925 -82.9133 165° South 463 533 38,000  Level Atlanta Center
03:11PM 35.7711 -82.8692 164° South 468 539 38,000  Level Atlanta Center
03:12PM 35.6433 -82.8250 164° South 468 539 38,000  Level Atlanta Center
03:13PM 35.5178 -82.7808 164° South 473 544 38,000  Level Atlanta Center
03:14PM 35.4069 -82.7417 164° South 473 544 38,000  Level Atlanta Center
03:15PM 35.2561 -82.6933 165° South 473 544 38,000  Level Atlanta Center
03:16PM 35.1303 -82.6472 163° South 473 544 38,000  Level Atlanta Center
03:17PM 35.0047 -82.6036 164° South 473 544 38,000  Level Atlanta Center
03:18PM 34.8789 -82.5628 165° South 473 544 38,000  Level Atlanta Center
03:19PM 34.7511 -82.5169 164° South 478 550 38,000 -300 Level Atlanta Center
03:20PM 34.6253 -82.4736 164° South 478 550 37,400 -1,080 Descending Atlanta Center
03:21PM 34.4933 -82.4283 164° South 478 550 35,900 -1,500 Descending Atlanta Center
03:22PM 34.3633 -82.3831 164° South 484 557 34,500 -1,740 Descending Atlanta Center
03:23PM 34.2311 -82.3403 165° South 494 568 32,500 -1,800 Descending Atlanta Center
03:24PM 34.0781 -82.2883 164° South 511 588 31,000 -1,200 Descending Atlanta Center
03:25PM 33.9733 -82.2503 163° South 494 568 30,100 -540 Descending Atlanta Center
03:26PM 33.8389 -82.2056 165° South 487 560 30,000 -120 Descending Atlanta Center
03:27PM 33.7047 -82.1561 163° South 493 567 29,900 -1,080 Descending Atlanta Center
03:28PM 33.5803 -82.0839 154° Southeast 498 573 27,900 -2,040 Descending Atlanta Center
03:31PM 33.3089 -81.9183 153° Southeast 495 570 23,000 -2,040 Descending Jacksonville Center
03:32PM 33.2019 -81.8525 153° Southeast 426 490 21,000 -2,040 Descending Jacksonville Center
03:33PM 33.0928 -81.7842 152° Southeast 421 484 19,000 -2,040 Descending Jacksonville Center
03:34PM 32.9878 -81.7236 154° Southeast 426 490 17,000 -2,100 Descending Jacksonville Center
03:35PM 32.8767 -81.6558 153° Southeast 426 490 14,800 -2,100 Descending Jacksonville Center
03:36PM 32.7778 -81.5953 153° Southeast 409 471 12,800 -1,860 Descending Jacksonville Center
03:37PM 32.6833 -81.5425 155° Southeast 397 457 11,100 -1,320 Descending Jacksonville Center
03:38PM 32.5950 -81.4869 152° Southeast 353 406 10,200 -1,200 Descending Jacksonville Center
03:39PM 32.5317 -81.4217 139° Southeast 317 365 8,700 -1,500 Descending Jacksonville Center
03:40PM 32.4725 -81.3536 136° Southeast 290 334 7,300 -1,380 Descending Jacksonville Center
03:41PM 32.4153 -81.2881 136° Southeast 290 334 6,000 -1,200 Descending Jacksonville Center
03:42PM 32.3686 -81.2297 133° Southeast 274 315 5,000 -1,020 Descending Jacksonville Center
03:43PM 32.3114 -81.1719 140° Southeast 274 315 4,000 -1,080 Descending Jacksonville Center
03:44PM 32.2378 -81.1364 158° South 263 303 2,900 -900 Descending Jacksonville Center
03:45PM 32.1750 -81.1156 164° South 249 287 2,200 -720 Descending Jacksonville Center
03:47PM 32.1167 -81.2000 270° West  Level FlightAware Approximate
03:54PM 32.1276 -81.2021 270° West  Level Estimated
03:55PM 32.1276 -81.2021 270° West  Level Estimated
03:56PM 32.1276 -81.2021 270° West  Level Estimated
03:57PM 32.1276 -81.2021 270° West  Level Estimated
03:58PM 32.1276 -81.2021 270° West  Level Estimated